Terminal Aerodrome Forecast
Issued by NWS

Home | Current Version | Previous Version | Text Only | Print | Product List | Glossary On
Versions: 1 2 3 4 5 6 7 8 9 10 11 12 13 14 15
000
FTUS41 KBOX 232320
TAFACK
TAF
KACK 232320Z 2400/2424 31015G22KT P6SM -RA OVC035
     FM240100 31021G26KT P6SM BKN035
     FM240700 31026G37KT P6SM SCT150
     FM242200 32020G28KT P6SM SCT250=

USA.gov is the U.S. government's official web portal to all federal, state and local government web resources and services.